Time;durP1;ratioP1;P1;durP2;ratioP2;P2;SDS_P1;SDS_P2;PMS_P1;PMS_P2;Temp;Humidity;BMP_temperature;BMP_pressure;BME280_temperature;BME280_humidity;BME280_pressure;Samples;Min_cycle;Max_cycle;Signal;HPM_P1;HPM_P2
2022/09/14 00:01:37;;;;;;;13.27;10.90;;;24.80;56.00;;;;;;4846793;54;21035;-29
2022/09/14 00:06:38;;;;;;;12.25;10.93;;;24.80;56.00;;;;;;4843532;54;21554;-25
2022/09/14 00:11:40;;;;;;;12.68;10.57;;;24.80;55.90;;;;;;4820124;54;21079;-25
2022/09/14 00:16:41;;;;;;;12.07;10.77;;;24.80;55.90;;;;;;4818553;54;21012;-24
2022/09/14 00:21:42;;;;;;;11.98;10.27;;;24.80;55.90;;;;;;4835534;54;21067;-25
2022/09/14 00:26:43;;;;;;;11.85;10.35;;;24.80;55.90;;;;;;4798850;54;21119;-26
2022/09/14 00:31:44;;;;;;;11.18;9.73;;;24.80;56.10;;;;;;4819242;54;21016;-26
2022/09/14 00:36:46;;;;;;;12.48;10.25;;;24.80;56.10;;;;;;4826414;54;21075;-26
2022/09/14 00:41:48;;;;;;;10.85;9.73;;;24.80;56.10;;;;;;4812478;54;21533;-25
2022/09/14 00:46:53;;;;;;;11.05;9.73;;;24.80;56.10;;;;;;4816977;54;21502;-31
2022/09/14 00:52:41;;;;;;;11.80;9.88;;;24.80;56.10;;;;;;4807810;54;21007;-32
2022/09/14 00:57:45;;;;;;;10.65;9.55;;;24.80;56.10;;;;;;4813013;54;21171;-33
2022/09/14 01:02:46;;;;;;;11.10;9.77;;;24.80;56.20;;;;;;4798254;54;21004;-25
2022/09/14 01:08:10;;;;;;;10.18;9.07;;;24.80;56.10;;;;;;4857266;54;20996;-32
2022/09/14 01:15:10;;;;;;;11.50;9.60;;;24.80;56.10;;;;;;4873747;54;21012;-33
2022/09/14 01:20:38;;;;;;;10.50;8.88;;;24.80;56.20;;;;;;4893372;54;21004;-35
2022/09/14 01:26:16;;;;;;;9.95;9.00;;;24.80;56.20;;;;;;4820908;54;21034;-34
2022/09/14 01:33:14;;;;;;;9.63;8.63;;;24.70;56.10;;;;;;4805769;54;21047;-26
2022/09/14 01:38:30;;;;;;;9.88;8.85;;;24.70;56.00;;;;;;4796147;54;21115;-34
2022/09/14 01:43:35;;;;;;;;;;;24.70;56.20;;;;;;4827007;54;20988;-26
2022/09/14 01:48:56;;;;;;;10.30;9.20;;;24.80;56.40;;;;;;4807365;54;20115;-26
2022/09/14 01:54:10;;;;;;;10.05;9.05;;;24.70;56.30;;;;;;4796497;54;21056;-33
2022/09/14 01:59:15;;;;;;;9.82;8.70;;;24.80;56.20;;;;;;4834491;54;20992;-28
2022/09/14 02:05:08;;;;;;;10.18;8.50;;;24.70;56.30;;;;;;4820481;54;21008;-32
2022/09/14 02:10:11;;;;;;;9.18;8.27;;;24.70;56.30;;;;;;4810170;54;20992;-26
2022/09/14 02:15:14;;;;;;;12.88;9.48;;;24.70;56.30;;;;;;4798886;54;21561;-30
2022/09/14 02:20:43;;;;;;;9.90;8.07;;;24.70;56.30;;;;;;4811289;54;21113;-30
2022/09/14 02:25:44;;;;;;;9.35;8.35;;;24.70;56.20;;;;;;4808319;54;21040;-34
2022/09/14 02:31:15;;;;;;;9.70;8.52;;;24.70;56.50;;;;;;4796018;55;21064;-33
2022/09/14 02:39:57;;;;;;;9.65;8.15;;;24.70;56.30;;;;;;4797632;54;21044;-34
2022/09/14 02:45:20;;;;;;;8.88;7.97;;;24.70;56.30;;;;;;4804078;54;21617;-27
2022/09/14 02:50:43;;;;;;;9.38;8.32;;;24.70;56.30;;;;;;4842355;54;20976;-26
2022/09/14 02:55:59;;;;;;;8.77;7.82;;;24.70;56.20;;;;;;4799274;54;21076;-27
2022/09/14 03:01:00;;;;;;;8.90;7.60;;;24.70;56.30;;;;;;4873327;54;21094;-31
2022/09/14 03:06:02;;;;;;;9.27;8.18;;;24.70;56.40;;;;;;4819206;54;21016;-35
2022/09/14 03:11:04;;;;;;;8.77;7.47;;;24.70;57.00;;;;;;4843762;54;21047;-28
2022/09/14 03:16:10;;;;;;;9.20;7.90;;;24.70;56.40;;;;;;4865981;54;21011;-37
2022/09/14 03:21:14;;;;;;;8.73;7.55;;;24.70;56.50;;;;;;4795379;58;20972;-31
2022/09/14 03:26:17;;;;;;;8.40;7.40;;;24.70;56.30;;;;;;4805563;54;21075;-26
2022/09/14 03:31:18;;;;;;;8.80;7.90;;;24.70;56.60;;;;;;4815154;54;20992;-26
2022/09/14 03:36:19;;;;;;;8.57;7.53;;;24.70;56.30;;;;;;4824601;54;21060;-30
2022/09/14 03:41:21;;;;;;;8.50;7.43;;;24.70;56.30;;;;;;4804068;54;20996;-25
2022/09/14 03:46:24;;;;;;;8.48;7.68;;;24.70;56.30;;;;;;4795698;54;21067;-24
2022/09/14 03:51:25;;;;;;;9.52;7.97;;;24.70;56.20;;;;;;4810728;54;21071;-30
2022/09/14 03:56:26;;;;;;;8.90;7.93;;;24.70;56.50;;;;;;4801849;54;21585;-27
2022/09/14 04:01:26;;;;;;;8.65;6.87;;;24.70;56.50;;;;;;4820735;54;21034;-27
2022/09/14 04:06:27;;;;;;;8.15;7.12;;;24.70;56.50;;;;;;4825945;54;21004;-29
2022/09/14 04:11:30;;;;;;;8.07;6.93;;;24.70;56.30;;;;;;4803652;54;21028;-25
2022/09/14 04:16:31;;;;;;;8.10;7.25;;;24.70;56.30;;;;;;4841909;54;21517;-34
2022/09/14 04:21:32;;;;;;;10.35;7.20;;;24.70;56.40;;;;;;4795651;55;21023;-29
2022/09/14 04:26:33;;;;;;;8.98;7.65;;;24.70;56.40;;;;;;4807277;54;21462;-29
2022/09/14 04:31:34;;;;;;;7.72;7.00;;;24.70;56.20;;;;;;4800879;54;21007;-27
2022/09/14 04:36:35;;;;;;;8.38;7.55;;;24.60;56.30;;;;;;4811768;54;21585;-35
2022/09/14 04:41:36;;;;;;;7.80;6.87;;;24.70;56.20;;;;;;4828342;54;21055;-26
2022/09/14 04:46:38;;;;;;;8.35;7.40;;;24.70;56.20;;;;;;4817597;54;21023;-34
2022/09/14 04:51:39;;;;;;;10.18;7.35;;;24.70;56.00;;;;;;4795280;58;22072;-28
2022/09/14 04:56:40;;;;;;;8.27;6.55;;;24.70;56.20;;;;;;4804699;54;21059;-26
2022/09/14 05:01:48;;;;;;;7.90;7.10;;;24.70;56.10;;;;;;4837628;54;20996;-29
2022/09/14 05:06:49;;;;;;;9.50;7.85;;;24.70;56.10;;;;;;4795356;58;21016;-31
2022/09/14 05:11:51;;;;;;;7.82;6.95;;;24.70;56.00;;;;;;4796945;54;21480;-33
2022/09/14 05:16:52;;;;;;;7.95;7.15;;;24.70;56.10;;;;;;4828240;54;21522;-31
2022/09/14 05:21:53;;;;;;;9.57;7.05;;;24.70;55.90;;;;;;4848329;54;21079;-30
2022/09/14 05:26:54;;;;;;;8.05;7.25;;;24.70;56.20;;;;;;4815698;54;21047;-29
2022/09/14 05:31:54;;;;;;;9.27;7.37;;;24.60;56.00;;;;;;4828604;54;21050;-32
2022/09/14 05:36:55;;;;;;;8.82;7.00;;;24.60;55.90;;;;;;4796515;54;21051;-28
2022/09/14 05:41:56;;;;;;;21.25;12.15;;;24.60;56.00;;;;;;4794819;54;21032;-33
2022/09/14 05:46:57;;;;;;;20.60;11.32;;;24.50;51.70;;;;;;4805022;54;21015;-28
2022/09/14 05:51:57;;;;;;;21.25;11.82;;;24.50;52.90;;;;;;4798879;54;21007;-37
2022/09/14 05:56:58;;;;;;;18.73;10.65;;;24.50;53.60;;;;;;4821460;54;21510;-35
2022/09/14 06:01:59;;;;;;;17.42;10.88;;;24.60;53.90;;;;;;4813989;54;21031;-35
2022/09/14 06:07:00;;;;;;;15.52;10.30;;;24.60;54.20;;;;;;4802775;54;21003;-27
2022/09/14 06:12:01;;;;;;;19.02;10.93;;;24.60;54.10;;;;;;4795251;58;21009;-29
2022/09/14 06:17:04;;;;;;;20.02;10.95;;;24.60;54.20;;;;;;4832087;54;21008;-28
2022/09/14 06:22:05;;;;;;;14.35;10.35;;;24.60;54.20;;;;;;4795005;58;21517;-28
2022/09/14 06:27:08;;;;;;;15.70;9.80;;;24.60;54.20;;;;;;4813820;54;21000;-28
2022/09/14 06:32:09;;;;;;;17.70;10.48;;;24.60;54.30;;;;;;4795645;54;20995;-30
2022/09/14 06:37:10;;;;;;;18.23;12.30;;;24.60;54.40;;;;;;4854500;54;21075;-26
2022/09/14 06:42:11;;;;;;;18.37;11.38;;;24.50;53.30;;;;;;4808533;54;21100;-32
2022/09/14 06:47:12;;;;;;;23.90;13.43;;;24.50;53.40;;;;;;4855479;54;21007;-32
2022/09/14 06:52:12;;;;;;;23.55;14.55;;;24.50;52.70;;;;;;4821653;54;21966;-34
2022/09/14 06:57:14;;;;;;;26.80;17.58;;;24.40;52.70;;;;;;4793734;54;21059;-29
2022/09/14 07:02:15;;;;;;;27.77;16.80;;;24.40;53.60;;;;;;4803508;54;22301;-32
2022/09/14 07:07:18;;;;;;;25.65;17.15;;;24.40;53.40;;;;;;4808369;54;21039;-34
2022/09/14 07:12:19;;;;;;;27.60;16.48;;;24.30;53.60;;;;;;4798389;54;21179;-26
2022/09/14 07:17:20;;;;;;;22.17;13.52;;;24.30;54.20;;;;;;4801789;54;21027;-33
2022/09/14 07:22:21;;;;;;;21.95;12.52;;;24.30;54.20;;;;;;4795276;55;21000;-27
2022/09/14 07:27:22;;;;;;;20.90;12.05;;;24.40;54.20;;;;;;4805546;54;21060;-37
2022/09/14 07:32:22;;;;;;;18.42;12.75;;;24.40;54.40;;;;;;4809870;54;21051;-26
2022/09/14 07:37:25;;;;;;;33.05;16.45;;;24.50;54.30;;;;;;4793374;58;21040;-33
2022/09/14 07:42:26;;;;;;;33.25;20.12;;;24.40;54.40;;;;;;4800490;54;21156;-27
2022/09/14 07:47:27;;;;;;;39.60;20.73;;;24.40;54.60;;;;;;4795028;58;21086;-35
2022/09/14 07:52:27;;;;;;;38.45;23.12;;;24.40;54.70;;;;;;4799818;54;21128;-33
2022/09/14 07:57:28;;;;;;;49.22;30.45;;;24.40;54.80;;;;;;4838586;54;21080;-29
2022/09/14 08:02:29;;;;;;;46.85;29.87;;;24.40;54.80;;;;;;4836008;54;20988;-32
2022/09/14 08:07:30;;;;;;;43.00;29.58;;;24.40;55.00;;;;;;4801010;54;21561;-33
2022/09/14 08:12:31;;;;;;;44.05;31.05;;;24.40;55.10;;;;;;4828265;54;21135;-33
2022/09/14 08:17:32;;;;;;;37.95;28.20;;;24.40;55.20;;;;;;4800526;54;21019;-28
2022/09/14 08:22:32;;;;;;;43.65;27.58;;;24.50;55.40;;;;;;4824676;54;21105;-29
2022/09/14 08:27:33;;;;;;;40.00;26.40;;;24.50;55.30;;;;;;4807961;54;21005;-34
2022/09/14 08:32:34;;;;;;;37.05;26.42;;;24.50;55.30;;;;;;4796990;54;21294;-28
2022/09/14 08:37:35;;;;;;;37.22;26.02;;;24.50;55.20;;;;;;4794913;58;21528;-29
2022/09/14 08:42:37;;;;;;;38.83;26.92;;;24.60;55.20;;;;;;4795252;58;21124;-30
2022/09/14 08:47:40;;;;;;;34.47;26.02;;;24.60;55.20;;;;;;4801081;54;21568;-29
2022/09/14 08:52:53;;;;;;;39.28;25.05;;;24.60;55.20;;;;;;4840991;54;21601;-34
2022/09/14 09:02:19;;;;;;;34.00;24.92;;;24.60;55.10;;;;;;4816410;54;21023;-33
2022/09/14 09:09:00;;;;;;;42.75;27.05;;;24.70;54.90;;;;;;4830703;54;21488;-29
2022/09/14 09:14:12;;;;;;;46.05;28.48;;;24.70;54.80;;;;;;4808229;54;21088;-28
2022/09/14 09:19:20;;;;;;;50.88;30.77;;;24.70;54.80;;;;;;4807978;54;21076;-26
2022/09/14 09:24:54;;;;;;;48.87;28.85;;;24.70;54.80;;;;;;4802332;54;21090;-26
2022/09/14 09:29:55;;;;;;;49.60;29.02;;;24.80;55.10;;;;;;4795516;58;21004;-33
2022/09/14 09:34:57;;;;;;;40.28;28.15;;;24.80;55.30;;;;;;4831794;54;22207;-30
2022/09/14 09:39:59;;;;;;;40.60;28.27;;;24.90;55.40;;;;;;4800016;54;21083;-32
2022/09/14 09:45:03;;;;;;;42.88;30.33;;;24.90;55.40;;;;;;4800932;54;21113;-32
2022/09/14 09:50:38;;;;;;;43.75;30.75;;;24.90;55.50;;;;;;4810198;54;21071;-32
2022/09/14 09:55:40;;;;;;;43.57;33.73;;;25.00;55.70;;;;;;4820581;54;21593;-29
2022/09/14 10:00:46;;;;;;;47.35;34.22;;;25.00;55.60;;;;;;4814864;54;21498;-32
2022/09/14 10:06:01;;;;;;;50.22;36.08;;;25.10;55.70;;;;;;4806718;54;21482;-34
2022/09/14 10:11:02;;;;;;;45.12;34.25;;;25.10;55.70;;;;;;4795100;58;21532;-32
2022/09/14 10:16:17;;;;;;;47.80;36.58;;;25.20;55.90;;;;;;4807037;54;21020;-33
2022/09/14 10:21:19;;;;;;;48.42;37.20;;;25.20;55.90;;;;;;4817089;54;22214;-35
2022/09/14 10:26:24;;;;;;;54.70;41.70;;;25.20;55.80;;;;;;4822943;54;21035;-32
2022/09/14 10:31:30;;;;;;;59.47;44.67;;;25.20;55.80;;;;;;4830218;54;21015;-27
2022/09/14 10:36:40;;;;;;;61.47;45.63;;;25.30;55.50;;;;;;4814480;54;21493;-32
2022/09/14 10:41:56;;;;;;;58.85;44.58;;;25.40;55.40;;;;;;4816923;54;21035;-29
2022/09/14 10:49:39;;;;;;;55.92;42.70;;;25.40;55.10;;;;;;4802735;54;21550;-27
2022/09/14 10:55:42;;;;;;;55.90;40.55;;;25.50;55.00;;;;;;4806922;54;21715;-28
2022/09/14 11:04:10;;;;;;;63.03;44.50;;;25.50;55.10;;;;;;4815750;54;20980;-28
2022/09/14 11:09:29;;;;;;;64.47;47.90;;;25.50;54.70;;;;;;4806302;54;21020;-29
2022/09/14 11:21:05;;;;;;;67.10;48.60;;;25.50;55.00;;;;;;4830159;54;21060;-33
2022/09/14 11:26:15;;;;;;;62.45;46.58;;;25.50;54.80;;;;;;4805146;54;21569;-31
2022/09/14 11:35:45;;;;;;;62.78;48.05;;;25.50;55.00;;;;;;4794936;58;20996;-28
2022/09/14 11:41:06;;;;;;;63.90;46.60;;;25.50;55.00;;;;;;4799131;54;21069;-34
2022/09/14 11:46:13;;;;;;;62.05;44.95;;;25.40;54.90;;;;;;4809135;54;20995;-30
2022/09/14 11:51:25;;;;;;;62.42;43.58;;;25.40;54.90;;;;;;4831522;54;21044;-30
2022/09/14 11:56:31;;;;;;;58.00;41.80;;;25.50;54.40;;;;;;4810067;54;21024;-34
2022/09/14 12:01:41;;;;;;;56.15;37.67;;;25.50;54.00;;;;;;4799481;54;21151;-28
2022/09/14 12:06:44;;;;;;;49.28;36.00;;;25.60;54.50;;;;;;4801675;54;22029;-31
2022/09/14 12:11:53;;;;;;;47.42;34.70;;;25.60;54.10;;;;;;4810151;54;21027;-31
2022/09/14 12:17:19;;;;;;;45.53;35.70;;;25.70;54.30;;;;;;4796771;54;21055;-28
2022/09/14 12:22:35;;;;;;;52.33;38.75;;;25.70;54.40;;;;;;4795430;54;21028;-28
2022/09/14 12:27:38;;;;;;;55.38;39.65;;;25.70;55.50;;;;;;4813051;54;21611;-24
2022/09/14 12:32:42;;;;;;;55.67;42.28;;;25.80;55.00;;;;;;4802704;54;21489;-27
2022/09/14 12:37:43;;;;;;;55.65;43.03;;;25.80;54.90;;;;;;4827358;54;21004;-29
2022/09/14 12:42:44;;;;;;;59.50;44.50;;;25.80;54.90;;;;;;4799888;54;21473;-33
2022/09/14 12:47:49;;;;;;;53.50;42.10;;;25.80;54.90;;;;;;4815930;54;21023;-29
2022/09/14 12:53:17;;;;;;;58.60;41.70;;;25.90;54.90;;;;;;4795714;56;21008;-26
2022/09/14 12:59:57;;;;;;;61.45;41.75;;;25.90;54.80;;;;;;4826058;54;21111;-27
2022/09/14 13:04:59;;;;;;;51.75;41.45;;;25.90;55.00;;;;;;4797561;54;21087;-30
2022/09/14 13:10:02;;;;;;;56.05;44.22;;;25.90;54.90;;;;;;4804560;54;21534;-30
2022/09/14 13:15:06;;;;;;;61.67;44.97;;;26.00;55.00;;;;;;4860802;54;21130;-26
2022/09/14 13:20:17;;;;;;;62.78;47.45;;;26.00;55.10;;;;;;4814693;54;21103;-26
2022/09/14 13:25:31;;;;;;;58.08;42.80;;;26.00;55.20;;;;;;4825369;54;21561;-29
2022/09/14 13:30:34;;;;;;;52.55;41.67;;;26.00;55.40;;;;;;4805293;54;22046;-28
2022/09/14 13:35:42;;;;;;;58.63;42.10;;;26.00;55.00;;;;;;4808719;54;21027;-32
2022/09/14 13:40:44;;;;;;;62.45;46.88;;;25.90;55.00;;;;;;4808081;54;21086;-34
2022/09/14 13:45:47;;;;;;;59.58;46.70;;;25.90;54.80;;;;;;4824144;54;21027;-33
2022/09/14 13:50:50;;;;;;;57.08;42.53;;;25.90;54.70;;;;;;4797753;54;21062;-35
2022/09/14 13:55:50;;;;;;;47.70;36.17;;;25.90;54.40;;;;;;4813058;54;21035;-30
2022/09/14 14:01:03;;;;;;;52.60;38.13;;;25.90;54.20;;;;;;4808450;54;21003;-32
2022/09/14 14:06:27;;;;;;;59.03;39.70;;;25.90;54.10;;;;;;4823042;54;21561;-27
2022/09/14 14:11:52;;;;;;;62.30;43.22;;;26.00;54.40;;;;;;4797147;54;20969;-28
2022/09/14 14:17:22;;;;;;;71.22;48.78;;;25.90;54.60;;;;;;4818698;54;21544;-31
2022/09/14 14:22:34;;;;;;;84.05;55.55;;;26.00;54.70;;;;;;4796109;54;21052;-32
2022/09/14 14:27:39;;;;;;;81.53;57.65;;;25.90;54.40;;;;;;4820429;54;21481;-32
2022/09/14 14:32:42;;;;;;;81.47;59.65;;;26.00;54.40;;;;;;4794941;58;21020;-30
2022/09/14 14:37:43;;;;;;;78.57;55.72;;;25.90;54.30;;;;;;4813272;54;21062;-31
2022/09/14 14:42:45;;;;;;;80.62;56.70;;;25.80;54.50;;;;;;4826297;54;21097;-28
2022/09/14 14:47:48;;;;;;;78.43;53.70;;;25.80;54.70;;;;;;4817841;54;21031;-27
2022/09/14 14:52:50;;;;;;;69.28;52.60;;;25.80;54.90;;;;;;4798836;54;21508;-26
2022/09/14 14:57:51;;;;;;;72.75;51.42;;;25.70;55.00;;;;;;4794626;54;21602;-33
2022/09/14 15:02:52;;;;;;;68.28;51.65;;;25.70;55.10;;;;;;4808253;54;21044;-26
2022/09/14 15:07:54;;;;;;;71.28;51.30;;;25.70;55.30;;;;;;4795076;58;20992;-35
2022/09/14 15:12:55;;;;;;;66.37;50.00;;;25.60;55.30;;;;;;4795123;58;21516;-33
2022/09/14 15:17:57;;;;;;;66.80;50.10;;;25.60;55.40;;;;;;4807228;54;21016;-32
2022/09/14 15:22:58;;;;;;;64.25;48.13;;;25.50;55.50;;;;;;4828799;54;21482;-31
2022/09/14 15:27:59;;;;;;;61.70;48.55;;;25.50;55.50;;;;;;4808160;54;21031;-33
2022/09/14 15:32:59;;;;;;;66.72;48.85;;;25.50;55.70;;;;;;4833941;54;21501;-35
2022/09/14 15:38:00;;;;;;;65.07;47.88;;;25.50;55.80;;;;;;4793682;58;21016;-39
2022/09/14 15:43:01;;;;;;;62.15;48.38;;;25.50;55.80;;;;;;4794978;58;21028;-31
2022/09/14 15:48:02;;;;;;;62.10;46.40;;;25.50;55.80;;;;;;4802882;54;21055;-29
2022/09/14 15:53:03;;;;;;;61.50;46.33;;;25.50;55.90;;;;;;4803645;54;21080;-34
2022/09/14 15:58:04;;;;;;;58.92;45.72;;;25.50;56.30;;;;;;4794958;54;21040;-34
2022/09/14 16:03:05;;;;;;;58.47;45.20;;;25.40;55.90;;;;;;4795211;58;21079;-33
2022/09/14 16:08:06;;;;;;;60.67;46.28;;;25.40;56.00;;;;;;4809109;54;21727;-35
2022/09/14 16:13:06;;;;;;;58.53;45.28;;;25.40;56.10;;;;;;4824044;54;22027;-35
2022/09/14 16:18:07;;;;;;;57.88;44.85;;;25.40;56.10;;;;;;4820545;54;21031;-34
2022/09/14 16:23:08;;;;;;;55.20;43.05;;;25.40;56.20;;;;;;4801910;54;21530;-35
2022/09/14 16:28:09;;;;;;;56.63;43.72;;;25.40;56.30;;;;;;4797276;54;21030;-32
2022/09/14 16:33:10;;;;;;;51.90;42.83;;;25.30;56.20;;;;;;4795028;58;21996;-26
2022/09/14 16:38:11;;;;;;;53.15;43.25;;;25.40;56.30;;;;;;4812884;54;21637;-32
2022/09/14 16:43:12;;;;;;;56.30;42.60;;;25.30;56.30;;;;;;4808174;54;21042;-35
2022/09/14 16:48:13;;;;;;;54.97;41.75;;;25.30;56.30;;;;;;4795937;54;21083;-32
2022/09/14 16:53:14;;;;;;;50.55;41.95;;;25.30;56.30;;;;;;4812721;54;21035;-31
2022/09/14 16:58:15;;;;;;;53.90;41.85;;;25.30;56.30;;;;;;4794616;55;21731;-34
2022/09/14 17:03:16;;;;;;;52.85;42.25;;;25.30;56.40;;;;;;4836439;54;22177;-31
2022/09/14 17:08:16;;;;;;;51.53;40.65;;;25.30;56.40;;;;;;4807599;54;20996;-28
2022/09/14 17:13:17;;;;;;;51.20;40.78;;;25.30;56.40;;;;;;4814868;54;21470;-26
2022/09/14 17:18:18;;;;;;;50.40;40.67;;;25.30;56.40;;;;;;4816158;54;21067;-37
2022/09/14 17:23:19;;;;;;;48.35;40.15;;;25.30;56.50;;;;;;4809925;54;21144;-33
2022/09/14 17:28:22;;;;;;;48.45;39.95;;;25.30;56.50;;;;;;4805784;54;21060;-27
2022/09/14 17:33:23;;;;;;;51.35;41.35;;;25.30;56.60;;;;;;4820909;54;21024;-29
2022/09/14 17:38:27;;;;;;;47.25;38.70;;;25.30;56.60;;;;;;4830916;54;21023;-29
2022/09/14 17:43:28;;;;;;;47.13;38.33;;;25.30;56.60;;;;;;4832893;54;21000;-35
2022/09/14 17:48:34;;;;;;;46.30;38.47;;;25.30;56.70;;;;;;4809176;54;21468;-32
2022/09/14 17:53:39;;;;;;;50.45;40.38;;;25.20;56.60;;;;;;4844134;54;21063;-28
2022/09/14 17:58:41;;;;;;;45.28;38.63;;;25.20;56.70;;;;;;4793741;58;21584;-30
2022/09/14 18:03:43;;;;;;;47.45;37.88;;;25.20;56.70;;;;;;4839667;54;21015;-28
2022/09/14 18:08:44;;;;;;;46.13;37.78;;;25.20;56.80;;;;;;4800193;54;21044;-33
2022/09/14 18:13:48;;;;;;;47.88;37.97;;;25.20;56.80;;;;;;4844460;54;21020;-28
2022/09/14 18:18:50;;;;;;;48.92;38.75;;;25.30;56.90;;;;;;4856531;54;21092;-35
2022/09/14 18:23:53;;;;;;;48.13;38.78;;;25.20;56.90;;;;;;4805084;54;21534;-27
2022/09/14 18:28:57;;;;;;;46.58;38.20;;;25.20;56.90;;;;;;4818144;54;20996;-32
2022/09/14 18:33:59;;;;;;;48.03;39.03;;;25.20;57.00;;;;;;4803124;54;21020;-42
2022/09/14 18:39:01;;;;;;;46.05;38.28;;;25.20;57.00;;;;;;4828066;54;21553;-33
2022/09/14 18:44:03;;;;;;;44.60;37.67;;;25.20;57.10;;;;;;4809756;54;21443;-31
2022/09/14 18:49:04;;;;;;;45.10;36.47;;;25.20;57.10;;;;;;4836609;54;21062;-32
2022/09/14 18:54:06;;;;;;;41.75;34.63;;;25.20;57.10;;;;;;4825144;54;21095;-32
2022/09/14 18:59:10;;;;;;;42.33;36.03;;;25.20;57.20;;;;;;4798072;54;21080;-34
2022/09/14 19:04:11;;;;;;;42.20;35.53;;;25.20;57.20;;;;;;4818983;54;21019;-33
2022/09/14 19:09:12;;;;;;;43.20;35.25;;;25.20;57.30;;;;;;4820350;54;21612;-26
2022/09/14 19:14:19;;;;;;;41.17;34.40;;;25.20;57.40;;;;;;4804446;54;21043;-26
2022/09/14 19:19:20;;;;;;;42.00;34.13;;;25.20;57.30;;;;;;4808748;54;21541;-31
2022/09/14 19:24:21;;;;;;;41.37;34.30;;;25.20;58.00;;;;;;4843862;54;21024;-25
2022/09/14 19:29:23;;;;;;;42.40;34.05;;;25.20;57.40;;;;;;4795123;58;21534;-34
2022/09/14 19:34:26;;;;;;;40.40;32.58;;;25.20;58.10;;;;;;4808076;54;21031;-34
2022/09/14 19:39:27;;;;;;;43.03;34.17;;;25.20;57.40;;;;;;4810904;54;21520;-28
2022/09/14 19:44:27;;;;;;;39.80;32.38;;;25.20;57.50;;;;;;4808063;54;21528;-30
2022/09/14 19:49:28;;;;;;;40.05;33.42;;;25.20;57.60;;;;;;4806056;54;21000;-31
2022/09/14 19:54:29;;;;;;;40.60;33.20;;;25.20;57.50;;;;;;4806609;54;21075;-29
2022/09/14 19:59:30;;;;;;;38.22;33.50;;;25.20;57.60;;;;;;4837163;54;21171;-29
2022/09/14 20:04:31;;;;;;;38.45;32.00;;;25.20;57.60;;;;;;4795297;55;21012;-30
2022/09/14 20:09:32;;;;;;;40.95;32.17;;;25.20;57.70;;;;;;4825208;54;21011;-29
2022/09/14 20:14:33;;;;;;;37.13;31.30;;;25.20;57.70;;;;;;4795254;58;21569;-29
2022/09/14 20:19:38;;;;;;;37.70;30.52;;;25.20;57.80;;;;;;4807646;54;21561;-36
2022/09/14 20:24:39;;;;;;;35.97;30.70;;;25.20;57.80;;;;;;4799644;54;21473;-30
2022/09/14 20:29:40;;;;;;;36.97;30.23;;;25.20;57.90;;;;;;4837734;54;21474;-30
2022/09/14 20:34:41;;;;;;;35.63;28.73;;;25.20;58.00;;;;;;4826167;54;21016;-32
2022/09/14 20:39:42;;;;;;;36.60;29.12;;;25.10;57.90;;;;;;4818038;54;21011;-36
2022/09/14 20:44:43;;;;;;;36.30;29.05;;;25.10;57.90;;;;;;4810027;54;21016;-29
2022/09/14 20:49:43;;;;;;;33.28;28.25;;;25.10;58.00;;;;;;4805670;54;21000;-27
2022/09/14 20:54:44;;;;;;;32.08;26.48;;;25.10;58.00;;;;;;4829024;54;21044;-35
2022/09/14 20:59:45;;;;;;;33.13;27.83;;;25.10;58.00;;;;;;4811054;54;20992;-32
2022/09/14 21:04:49;;;;;;;33.63;27.80;;;25.10;58.00;;;;;;4799088;54;21548;-31
2022/09/14 21:09:50;;;;;;;29.58;26.12;;;25.10;58.00;;;;;;4795895;54;21071;-33
2022/09/14 21:14:51;;;;;;;31.40;25.90;;;25.10;58.10;;;;;;4807872;54;21012;-35
2022/09/14 21:19:51;;;;;;;33.60;26.08;;;25.10;58.10;;;;;;4803942;54;21545;-26
2022/09/14 21:24:52;;;;;;;31.87;25.98;;;25.10;58.20;;;;;;4875047;54;20988;-33
2022/09/14 21:29:53;;;;;;;32.28;25.33;;;25.10;58.10;;;;;;4820574;54;21012;-28
2022/09/14 21:34:54;;;;;;;31.23;25.73;;;25.10;58.70;;;;;;4816810;54;21015;-28
2022/09/14 21:39:56;;;;;;;30.50;24.50;;;25.10;58.20;;;;;;4805522;54;20992;-34
2022/09/14 21:44:57;;;;;;;29.02;23.25;;;25.10;58.20;;;;;;4795584;58;21557;-33
2022/09/14 21:49:58;;;;;;;27.98;23.98;;;25.10;58.20;;;;;;4805380;54;21019;-26
2022/09/14 21:54:59;;;;;;;30.48;24.15;;;25.10;58.30;;;;;;4794814;55;21043;-35
2022/09/14 22:00:00;;;;;;;28.20;24.15;;;25.10;58.20;;;;;;4811219;54;21090;-31
2022/09/14 22:05:02;;;;;;;28.60;24.17;;;25.10;58.30;;;;;;4798650;54;20983;-28
2022/09/14 22:10:05;;;;;;;25.55;22.75;;;25.10;58.30;;;;;;4836348;54;21493;-35
2022/09/14 22:15:07;;;;;;;26.33;22.00;;;25.10;58.30;;;;;;4798910;54;21541;-31
2022/09/14 22:20:09;;;;;;;28.75;23.15;;;25.10;58.30;;;;;;4809066;54;21473;-31
2022/09/14 22:25:10;;;;;;;28.48;22.60;;;25.10;58.30;;;;;;4822203;54;21012;-31
2022/09/14 22:30:12;;;;;;;28.35;22.48;;;25.10;58.40;;;;;;4813927;54;21556;-33
2022/09/14 22:35:13;;;;;;;25.48;22.20;;;25.10;58.40;;;;;;4819411;54;21019;-30
2022/09/14 22:40:13;;;;;;;25.55;21.05;;;25.10;58.40;;;;;;4796247;54;21011;-30
2022/09/14 22:45:14;;;;;;;24.70;20.85;;;25.10;58.40;;;;;;4850302;54;21075;-28
2022/09/14 22:50:15;;;;;;;25.02;21.17;;;25.10;58.40;;;;;;4797009;54;21685;-35
2022/09/14 22:55:16;;;;;;;24.77;21.15;;;25.10;58.40;;;;;;4797285;54;21036;-27
2022/09/14 23:00:17;;;;;;;25.85;21.35;;;25.10;58.40;;;;;;4803842;54;21529;-27
2022/09/14 23:05:18;;;;;;;23.52;20.88;;;25.00;58.40;;;;;;4797964;54;20984;-34
2022/09/14 23:10:19;;;;;;;25.60;20.45;;;25.10;58.50;;;;;;4809312;54;21039;-32
2022/09/14 23:15:20;;;;;;;22.42;19.48;;;25.10;58.40;;;;;;4800867;54;21553;-26
2022/09/14 23:20:21;;;;;;;23.77;20.05;;;25.10;58.50;;;;;;4819100;54;21119;-29
2022/09/14 23:25:22;;;;;;;23.87;19.85;;;25.10;58.50;;;;;;4836132;54;21000;-31
2022/09/14 23:30:22;;;;;;;22.27;19.85;;;25.00;58.40;;;;;;4796139;55;21079;-27
2022/09/14 23:35:24;;;;;;;23.98;19.60;;;25.00;58.50;;;;;;4817008;54;21523;-33
2022/09/14 23:40:25;;;;;;;22.00;19.55;;;25.00;58.40;;;;;;4826229;54;21053;-26
2022/09/14 23:45:27;;;;;;;21.92;19.50;;;25.00;58.40;;;;;;4800330;54;20988;-26
2022/09/14 23:50:28;;;;;;;22.75;19.20;;;25.00;58.50;;;;;;4805698;54;20992;-29
2022/09/14 23:55:28;;;;;;;22.65;19.83;;;25.10;58.50;;;;;;4799592;54;21024;-30
